Aérodrome :
LOGIN :

S'inscrire | Disclaimer

   EN    FR    IT 

 










Légende :    VFR   VFR Marginal   IFR   IFR Intensif   IFR Très Intensif
Visi : 
Plafond : 
>= 8 km
>= 3000ft
5 à 8 km
1000 à 3000 ft
1500m à 5 km
500 à 1000 ft
800 à 1500m
200 à 500 ft
< 800m
< 200 ft
Symboles :   Orages  Brouillard  Fortes neiges  Fortes précipitations  Vent > 20 kt
SIGMETs :   Divers  Orages  Givrage  Turbulence  Onde Orograph.  Cendres Volcan.







- Altitude de l'aérodrome : 19 ft
- Code IATA : LCY
- Voir les cartes d'approche


EGLC - London City

DERNIER METAR :
  • 161120Z AUTO 21010KT 180V250 9999 OVC011 10/07 Q1005

METARs EXPIRÉS :
  • 161050Z AUTO 21009KT 170V240 9999 OVC011 10/07 Q1005
  • 161020Z AUTO 21010KT 160V230 9999 BKN011 OVC017 09/07 Q1006
  • 160950Z AUTO 21010KT 9999 BKN011 OVC020 10/07 Q1006
  • 160920Z AUTO 21011KT 9999 BKN011 OVC016 09/07 Q1006
  • 160850Z AUTO 20012KT 170V240 9999 BKN011 OVC018 09/07 Q1006

TAF TAF EGLC
Valide du 16 à 12h jusqu'au 16 à 21h UTC


161102Z 1612/1621 21010KT 9999 SCT018
TEMPO 1612/1616 23016G26KT 8000 -RADZ BKN012
PROB30
TEMPO 1612/1614 4000 RADZ BKN008
PROB30
TEMPO 1614/1616 3000 +RA
BECMG 1616/1619 27008KT
ATIS : +44 20 7646 0224
Pas de NOTAMs connus pour ce terrain.



MET'MAP, la Météo Aéronautique d'un coup d'oeil ! - Copyright ORBIFLY Décembre 2007 - Disclaimer

ORBIFLY MET'MAP TEAM :

Programmation & Développement : Alexandra Zaïnal
Conception & Développement : Baudouin d'Aumeries
Co-Programmation & Développement : Marc-Olivier Méhu
Soutien technique & logistique : Manuel Goepfert

Contact : metmap@orbifly.com




SOURCES & CREDITS :

   NOAA